Time;durP1;ratioP1;P1;durP2;ratioP2;P2;SDS_P1;SDS_P2;PMS_P1;PMS_P2;Temp;Humidity;BMP_temperature;BMP_pressure;BME280_temperature;BME280_humidity;BME280_pressure;Samples;Min_cycle;Max_cycle;Signal;HPM_P1;HPM_P2
2022/10/22 00:00:44;;;;;;;4.80;4.03;;;;;;;15.46;100.00;99677.47;5054162;28;20231;-78
2022/10/22 00:03:10;;;;;;;5.67;3.63;;;;;;;15.36;100.00;99674.00;5062330;28;20181;-77
2022/10/22 00:05:35;;;;;;;9.73;4.67;;;;;;;15.32;100.00;99683.78;5054161;28;20636;-78
2022/10/22 00:08:00;;;;;;;7.40;4.07;;;;;;;15.16;100.00;99676.44;5053628;28;20323;-77
2022/10/22 00:10:26;;;;;;;8.17;4.97;;;;;;;15.06;100.00;99679.88;5050104;28;20246;-78
2022/10/22 00:12:51;;;;;;;8.73;3.80;;;;;;;14.81;100.00;99682.66;5065441;28;20220;-78
2022/10/22 00:15:16;;;;;;;9.17;3.97;;;;;;;14.76;100.00;99681.38;5054253;28;20200;-79
2022/10/22 00:17:41;;;;;;;8.43;4.83;;;;;;;14.80;100.00;99681.00;5053415;28;20729;-78
2022/10/22 00:20:07;;;;;;;9.70;4.43;;;;;;;14.86;100.00;99690.06;5043694;28;20192;-77
2022/10/22 00:22:33;;;;;;;9.80;4.80;;;;;;;14.98;100.00;99690.84;5068492;28;20185;-79
2022/10/22 00:24:58;;;;;;;4.70;4.03;;;;;;;15.00;100.00;99687.19;5053782;28;20240;-80
2022/10/22 00:27:23;;;;;;;7.90;4.67;;;;;;;15.09;100.00;99679.63;5053064;28;20243;-79
2022/10/22 00:29:48;;;;;;;7.30;4.40;;;;;;;14.95;100.00;99675.56;5053926;28;20170;-79
2022/10/22 00:32:14;;;;;;;9.97;4.77;;;;;;;14.97;100.00;99674.50;5062094;28;20228;-79
2022/10/22 00:34:39;;;;;;;8.20;4.00;;;;;;;14.98;100.00;99670.97;5052810;28;20551;-79
2022/10/22 00:37:04;;;;;;;6.57;4.80;;;;;;;15.01;100.00;99670.72;5053181;28;20229;-80
2022/10/22 00:39:30;;;;;;;6.93;4.60;;;;;;;14.85;100.00;99671.09;5052138;28;20227;-80
2022/10/22 00:41:57;;;;;;;6.77;4.20;;;;;;;14.86;100.00;99674.53;5064781;28;20596;-81
2022/10/22 00:45:04;;;;;;;5.77;4.50;;;;;;;14.87;100.00;99668.38;5047807;28;20177;-80
2022/10/22 00:47:34;;;;;;;6.37;4.63;;;;;;;15.00;100.00;99676.03;5052988;28;20629;-80
2022/10/22 00:50:00;;;;;;;7.70;5.07;;;;;;;15.07;100.00;99676.34;5071630;28;20602;-81
2022/10/22 00:52:27;;;;;;;9.80;5.43;;;;;;;15.04;100.00;99666.25;5055922;28;20227;-80
2022/10/22 00:54:52;;;;;;;7.80;5.33;;;;;;;14.91;100.00;99651.69;5053398;28;20234;-80
2022/10/22 00:57:19;;;;;;;6.43;5.10;;;;;;;14.72;100.00;99651.50;5075606;28;20206;-82
2022/10/22 00:59:45;;;;;;;8.60;5.13;;;;;;;14.52;100.00;99654.69;5048406;28;20273;-80
2022/10/22 01:02:10;;;;;;;7.50;4.93;;;;;;;14.51;100.00;99660.81;5052892;28;20228;-82
2022/10/22 01:04:36;;;;;;;7.07;5.20;;;;;;;14.42;100.00;99664.09;5046730;28;20222;-81
2022/10/22 01:07:01;;;;;;;6.60;4.87;;;;;;;14.39;100.00;99668.69;5052410;28;20555;-82
2022/10/22 01:09:40;;;;;;;9.53;6.13;;;;;;;14.31;100.00;99677.88;5085013;28;20197;-79
2022/10/22 01:12:17;;;;;;;12.63;5.50;;;;;;;14.03;100.00;99682.56;5076459;28;20220;-81
2022/10/22 01:15:04;;;;;;;10.83;6.23;;;;;;;14.08;100.00;99678.78;5053138;28;20624;-81
2022/10/22 01:18:00;;;;;;;8.00;6.00;;;;;;;13.93;100.00;99699.72;5052273;28;20189;-82
2022/10/22 01:20:34;;;;;;;9.00;6.53;;;;;;;13.94;100.00;99697.94;5048874;28;20342;-81
2022/10/22 01:23:30;;;;;;;9.27;6.03;;;;;;;13.88;100.00;99707.81;5061984;28;20197;-80
2022/10/22 01:26:23;;;;;;;10.53;6.20;;;;;;;13.91;100.00;99709.34;5052852;28;20287;-81
2022/10/22 01:28:56;;;;;;;8.50;6.03;;;;;;;14.07;100.00;99710.78;5071934;28;20663;-81
2022/10/22 01:31:23;;;;;;;12.60;7.20;;;;;;;14.01;100.00;99717.22;5043511;28;20236;-81
2022/10/22 01:33:52;;;;;;;11.93;7.70;;;;;;;14.09;100.00;99716.66;5054946;28;20197;-80
2022/10/22 01:36:18;;;;;;;9.07;7.80;;;;;;;14.16;100.00;99705.72;5051670;28;20243;-78
2022/10/22 01:38:45;;;;;;;12.77;7.40;;;;;;;14.12;100.00;99706.91;5052624;28;20260;-79
2022/10/22 01:41:11;;;;;;;11.23;7.07;;;;;;;14.19;100.00;99705.50;5063141;28;20620;-79
2022/10/22 01:43:36;;;;;;;8.27;6.93;;;;;;;14.13;100.00;99700.78;5055026;28;20311;-80
2022/10/22 01:46:05;;;;;;;11.97;6.27;;;;;;;14.10;100.00;99701.00;5070324;28;20212;-75
2022/10/22 01:48:46;;;;;;;7.70;6.10;;;;;;;14.09;100.00;99712.31;5045745;28;20186;-77
2022/10/22 01:51:23;;;;;;;8.83;5.33;;;;;;;14.23;100.00;99707.84;5057794;28;20228;-79
2022/10/22 01:53:57;;;;;;;10.30;5.30;;;;;;;14.18;100.00;99709.03;5045245;28;20185;-79
2022/10/22 01:56:35;;;;;;;10.33;4.97;;;;;;;14.22;100.00;99704.44;5069269;28;20238;-80
2022/10/22 01:59:25;;;;;;;6.47;5.03;;;;;;;14.21;100.00;99710.56;5041924;28;20177;-81
2022/10/22 02:02:03;;;;;;;5.13;4.00;;;;;;;14.14;100.00;99694.69;5065728;28;20212;-81
2022/10/22 02:04:49;;;;;;;6.63;4.20;;;;;;;14.21;100.00;99679.50;5045219;28;20193;-80
2022/10/22 02:07:20;;;;;;;7.57;4.73;;;;;;;14.25;100.00;99687.84;5051779;28;20185;-77
2022/10/22 02:09:47;;;;;;;5.93;4.27;;;;;;;14.26;100.00;99689.50;5051460;28;20602;-79
2022/10/22 02:12:13;;;;;;;8.77;4.67;;;;;;;14.22;100.00;99693.28;5059635;28;20220;-79
2022/10/22 02:14:42;;;;;;;12.20;4.83;;;;;;;14.25;100.00;99700.78;5051754;28;20186;-80
2022/10/22 02:17:12;;;;;;;6.47;4.37;;;;;;;14.24;100.00;99712.06;5051308;28;20248;-79
2022/10/22 02:19:49;;;;;;;5.60;4.40;;;;;;;14.22;100.00;99707.03;5051838;28;20175;-78
2022/10/22 02:22:14;;;;;;;7.43;3.60;;;;;;;14.25;100.00;99704.22;5068212;28;20281;-79
2022/10/22 02:24:40;;;;;;;5.57;3.83;;;;;;;14.20;100.00;99690.78;5043082;28;20173;-80
2022/10/22 02:27:21;;;;;;;9.67;4.00;;;;;;;14.23;100.00;99690.56;5051289;28;20182;-79
2022/10/22 02:30:08;;;;;;;5.13;3.40;;;;;;;14.30;100.00;99694.34;5051659;28;20223;-78
2022/10/22 02:32:46;;;;;;;3.83;2.67;;;;;;;14.31;100.00;99689.97;5023251;28;20237;-79
2022/10/22 02:35:15;;;;;;;3.67;2.47;;;;;;;14.40;100.00;99697.03;5051792;28;20197;-79
2022/10/22 02:37:42;;;;;;;4.03;2.53;;;;;;;14.35;100.00;99687.03;5050779;28;20288;-79
2022/10/22 02:40:07;;;;;;;6.70;2.70;;;;;;;14.42;100.00;99681.41;5042330;28;20177;-78
2022/10/22 02:42:34;;;;;;;2.93;2.17;;;;;;;14.54;100.00;99677.84;5067798;28;20243;-79
2022/10/22 02:44:59;;;;;;;7.67;2.57;;;;;;;14.61;100.00;99673.84;5050844;28;20184;-79
2022/10/22 02:47:24;;;;;;;8.30;2.70;;;;;;;14.62;100.00;99675.47;5043960;28;20190;-79
2022/10/22 02:49:50;;;;;;;5.63;2.60;;;;;;;14.55;100.00;99673.50;5049294;28;20198;-78
2022/10/22 02:52:15;;;;;;;4.43;2.07;;;;;;;14.52;100.00;99680.56;5074429;28;20699;-80
2022/10/22 02:54:40;;;;;;;10.00;2.40;;;;;;;14.37;100.00;99679.16;5051141;28;20264;-80
2022/10/22 02:57:05;;;;;;;7.13;2.43;;;;;;;14.30;100.00;99683.16;5050732;28;20205;-79
2022/10/22 02:59:31;;;;;;;2.60;2.40;;;;;;;14.35;100.00;99684.47;5051141;28;20557;-78
2022/10/22 03:01:56;;;;;;;6.37;2.43;;;;;;;14.29;100.00;99681.50;5045456;28;20362;-78
2022/10/22 03:04:21;;;;;;;3.43;2.63;;;;;;;14.22;100.00;99682.94;5051866;28;20188;-78
2022/10/22 03:06:47;;;;;;;4.47;2.70;;;;;;;14.25;100.00;99690.44;5050615;28;20599;-78
2022/10/22 03:09:13;;;;;;;4.93;2.60;;;;;;;14.22;100.00;99694.09;5050998;28;20205;-77
2022/10/22 03:11:38;;;;;;;5.03;2.23;;;;;;;14.37;100.00;99705.03;5054484;28;20259;-78
2022/10/22 03:14:04;;;;;;;7.33;2.37;;;;;;;14.45;100.00;99710.44;5049274;28;20528;-78
2022/10/22 03:16:29;;;;;;;6.03;2.50;;;;;;;14.51;100.00;99704.81;5064214;28;20224;-77
2022/10/22 03:18:54;;;;;;;5.03;2.23;;;;;;;14.46;100.00;99714.69;5045601;28;20669;-78
2022/10/22 03:21:37;;;;;;;5.63;2.40;;;;;;;14.29;100.00;99715.13;5065555;28;20220;-77
2022/10/22 03:24:08;;;;;;;5.40;1.97;;;;;;;14.36;100.00;99729.25;5046961;28;20189;-76
2022/10/22 03:26:34;;;;;;;6.70;2.67;;;;;;;14.42;100.00;99723.59;5053039;28;20173;-78
2022/10/22 03:29:00;;;;;;;5.07;2.37;;;;;;;14.43;100.00;99720.09;5054826;28;20636;-78
2022/10/22 03:31:25;;;;;;;4.57;2.37;;;;;;;14.48;100.00;99719.75;5034238;28;20247;-79
2022/10/22 03:33:50;;;;;;;7.07;2.53;;;;;;;14.32;100.00;99720.91;5058063;28;20193;-78
2022/10/22 03:36:16;;;;;;;5.93;2.30;;;;;;;14.30;100.00;99721.97;5054154;28;20212;-76
2022/10/22 03:38:41;;;;;;;4.40;2.23;;;;;;;14.22;100.00;99737.25;5054964;28;20196;-78
2022/10/22 03:41:07;;;;;;;6.13;2.30;;;;;;;14.03;100.00;99731.69;5059357;28;20312;-77
2022/10/22 03:43:34;;;;;;;6.90;2.53;;;;;;;14.19;100.00;99731.38;5057198;28;20179;-78
2022/10/22 03:45:59;;;;;;;7.33;2.27;;;;;;;14.08;100.00;99741.69;5054573;28;20217;-78
2022/10/22 03:48:25;;;;;;;5.13;2.07;;;;;;;14.16;100.00;99754.06;5052689;28;20565;-78
2022/10/22 03:50:50;;;;;;;5.27;2.33;;;;;;;14.41;100.00;99759.97;5052770;28;20579;-78
2022/10/22 03:53:15;;;;;;;3.03;2.03;;;;;;;14.46;100.00;99769.03;5059657;28;20178;-79
2022/10/22 03:55:41;;;;;;;3.00;2.00;;;;;;;14.58;100.00;99762.06;5054405;28;20469;-79
2022/10/22 03:58:06;;;;;;;4.47;2.10;;;;;;;14.59;100.00;99762.91;5053591;28;20540;-79
2022/10/22 04:00:33;;;;;;;3.70;2.10;;;;;;;14.45;100.00;99776.88;5050191;28;20235;-80
2022/10/22 04:02:58;;;;;;;3.53;2.10;;;;;;;14.48;100.00;99777.47;5064142;28;20220;-78
2022/10/22 04:05:24;;;;;;;5.53;2.10;;;;;;;14.56;100.00;99776.88;5054280;28;20178;-78
2022/10/22 04:07:49;;;;;;;3.83;2.00;;;;;;;14.72;100.00;99784.34;5053821;28;20260;-79
2022/10/22 04:10:15;;;;;;;3.53;1.80;;;;;;;14.83;100.00;99786.94;5046807;28;20178;-77
2022/10/22 04:12:40;;;;;;;5.90;1.73;;;;;;;14.91;100.00;99786.34;5073601;28;20517;-78
2022/10/22 04:15:06;;;;;;;6.07;1.80;;;;;;;14.88;100.00;99790.94;5053982;28;20288;-78
2022/10/22 04:17:35;;;;;;;7.33;1.83;;;;;;;14.81;100.00;99791.41;5053431;28;20665;-77
2022/10/22 04:20:02;;;;;;;7.57;1.70;;;;;;;14.88;100.00;99799.50;5071946;28;20182;-77
2022/10/22 04:22:28;;;;;;;4.63;1.80;;;;;;;14.92;100.00;99802.69;5042906;28;20295;-76
2022/10/22 04:24:53;;;;;;;3.40;1.67;;;;;;;14.90;100.00;99805.41;5081811;28;20304;-77
2022/10/22 04:27:18;;;;;;;2.63;1.60;;;;;;;14.89;100.00;99814.13;5071416;28;20243;-77
2022/10/22 04:29:43;;;;;;;6.40;1.60;;;;;;;14.95;100.00;99816.22;5053909;28;20184;-78
2022/10/22 04:32:09;;;;;;;3.80;1.37;;;;;;;14.94;100.00;99811.19;5062824;28;20599;-78
2022/10/22 04:34:34;;;;;;;1.83;1.30;;;;;;;14.96;100.00;99820.47;5051312;28;20201;-78
2022/10/22 04:36:59;;;;;;;8.10;1.83;;;;;;;14.97;100.00;99819.53;5075018;28;20201;-79
2022/10/22 04:39:25;;;;;;;5.83;1.40;;;;;;;15.02;100.00;99816.59;5048441;28;20274;-78
2022/10/22 04:41:50;;;;;;;4.27;1.47;;;;;;;15.04;100.00;99821.66;5064136;28;20687;-77
2022/10/22 04:44:15;;;;;;;5.23;1.20;;;;;;;15.03;100.00;99820.81;5053712;28;20235;-78
2022/10/22 04:46:41;;;;;;;3.17;1.40;;;;;;;15.05;100.00;99818.13;5053245;28;20170;-78
2022/10/22 04:49:06;;;;;;;5.43;1.70;;;;;;;15.01;100.00;99820.94;5053544;28;20182;-78
2022/10/22 04:51:31;;;;;;;4.93;1.90;;;;;;;14.88;100.00;99825.41;5063031;28;20220;-79
2022/10/22 04:53:57;;;;;;;2.93;1.20;;;;;;;14.90;100.00;99823.53;5046367;28;20276;-77
2022/10/22 04:56:25;;;;;;;4.67;1.37;;;;;;;14.91;100.00;99832.13;5052291;28;20220;-76
2022/10/22 04:59:18;;;;;;;2.00;1.20;;;;;;;14.93;100.00;99833.66;5053433;28;20181;-77
2022/10/22 05:01:43;;;;;;;2.60;1.30;;;;;;;14.89;100.00;99826.25;5057582;28;20270;-78
2022/10/22 05:04:18;;;;;;;2.63;1.23;;;;;;;14.85;100.00;99836.84;5058211;28;20192;-77
2022/10/22 05:06:44;;;;;;;3.40;1.40;;;;;;;14.64;100.00;99836.69;5052695;28;20268;-76
2022/10/22 05:09:12;;;;;;;3.90;1.30;;;;;;;14.61;100.00;99830.91;5053287;28;20265;-76
2022/10/22 05:11:40;;;;;;;5.60;1.30;;;;;;;14.65;100.00;99834.97;5066774;28;20263;-76
2022/10/22 05:14:06;;;;;;;1.37;1.20;;;;;;;14.60;100.00;99842.19;5047029;28;20231;-76
2022/10/22 05:16:33;;;;;;;2.37;1.00;;;;;;;14.55;100.00;99832.22;5070549;28;20255;-77
2022/10/22 05:19:00;;;;;;;4.67;1.37;;;;;;;14.67;100.00;99840.81;5038883;28;20173;-77
2022/10/22 05:21:26;;;;;;;1.53;0.90;;;;;;;14.63;100.00;99829.03;5064951;28;20238;-77
2022/10/22 05:23:53;;;;;;;2.70;1.20;;;;;;;14.60;100.00;99831.84;5048436;28;20177;-77
2022/10/22 05:26:20;;;;;;;1.80;1.07;;;;;;;14.67;100.00;99833.06;5050760;28;20177;-77
2022/10/22 05:28:46;;;;;;;2.50;1.00;;;;;;;14.66;100.00;99832.25;5052733;28;20280;-77
2022/10/22 05:31:13;;;;;;;2.27;1.30;;;;;;;14.64;100.00;99835.88;5056338;28;20323;-80
2022/10/22 05:33:39;;;;;;;3.90;0.90;;;;;;;14.59;100.00;99827.63;5048636;28;20177;-77
2022/10/22 05:36:06;;;;;;;3.70;1.00;;;;;;;14.54;100.00;99833.16;5050983;28;20177;-78
2022/10/22 05:38:33;;;;;;;4.20;1.57;;;;;;;14.52;100.00;99835.84;5082032;28;20199;-77
2022/10/22 05:41:25;;;;;;;2.47;1.43;;;;;;;14.33;100.00;99838.97;5038709;28;20229;-76
2022/10/22 05:43:54;;;;;;;1.87;1.43;;;;;;;14.22;100.00;99841.53;5044076;28;20239;-75
2022/10/22 05:46:22;;;;;;;2.40;1.30;;;;;;;14.13;100.00;99837.06;5051707;28;20208;-76
2022/10/22 05:48:59;;;;;;;2.70;1.00;;;;;;;14.01;100.00;99839.59;5052443;28;20306;-76
2022/10/22 05:51:28;;;;;;;2.97;1.23;;;;;;;13.90;100.00;99838.75;5060830;28;20220;-77
2022/10/22 05:53:56;;;;;;;4.57;1.13;;;;;;;13.74;100.00;99837.25;5045248;28;20178;-76
2022/10/22 05:56:22;;;;;;;3.00;1.00;;;;;;;13.70;100.00;99846.16;5050203;28;20229;-75
2022/10/22 05:58:48;;;;;;;3.50;1.50;;;;;;;13.76;100.00;99844.91;5042759;28;20186;-76
2022/10/22 06:01:24;;;;;;;2.50;1.07;;;;;;;13.65;100.00;99843.91;5046002;28;20286;-75
2022/10/22 06:03:53;;;;;;;1.37;1.27;;;;;;;13.68;100.00;99846.28;5047853;28;20193;-76
2022/10/22 06:06:38;;;;;;;5.43;1.17;;;;;;;13.46;100.00;99856.47;5040008;28;20259;-76
2022/10/22 06:09:17;;;;;;;3.73;1.40;;;;;;;13.44;100.00;99866.13;5048124;28;20264;-79
2022/10/22 06:11:43;;;;;;;2.73;1.23;;;;;;;13.51;100.00;99865.56;5060734;28;20224;-77
2022/10/22 06:14:09;;;;;;;4.73;1.40;;;;;;;13.54;100.00;99867.94;5039273;28;20174;-77
2022/10/22 06:16:34;;;;;;;3.70;1.77;;;;;;;13.54;100.00;99870.53;5047881;28;20241;-77
2022/10/22 06:19:03;;;;;;;3.40;1.50;;;;;;;13.41;100.00;99882.66;5051225;28;20239;-77
2022/10/22 06:21:30;;;;;;;3.20;1.33;;;;;;;13.35;100.00;99885.63;5047749;28;20212;-76
2022/10/22 06:23:57;;;;;;;2.13;1.30;;;;;;;13.35;100.00;99890.81;5051587;28;20546;-76
2022/10/22 06:26:22;;;;;;;5.37;1.43;;;;;;;13.33;100.00;99893.47;5050708;28;20193;-77
2022/10/22 06:28:47;;;;;;;2.27;1.40;;;;;;;13.29;100.00;99901.56;5051171;28;20530;-75
2022/10/22 06:31:13;;;;;;;1.93;1.00;;;;;;;13.40;100.00;99901.66;5056487;28;20228;-76
2022/10/22 06:33:41;;;;;;;3.80;1.33;;;;;;;13.29;100.00;99907.53;5057176;28;20173;-76
2022/10/22 06:36:12;;;;;;;2.13;1.23;;;;;;;13.05;100.00;99916.03;5049835;28;20263;-77
2022/10/22 06:38:38;;;;;;;5.80;1.70;;;;;;;13.10;100.00;99917.47;5050634;28;20223;-76
2022/10/22 06:41:06;;;;;;;1.93;1.40;;;;;;;13.12;100.00;99920.78;5060634;28;20588;-77
2022/10/22 06:43:31;;;;;;;6.77;1.83;;;;;;;13.24;100.00;99927.69;5049944;28;20260;-76
2022/10/22 06:46:02;;;;;;;2.17;1.40;;;;;;;13.13;100.00;99927.63;5051314;28;20585;-76
2022/10/22 06:48:27;;;;;;;2.97;1.77;;;;;;;13.21;100.00;99933.09;5069224;28;20177;-75
2022/10/22 06:50:53;;;;;;;1.47;1.37;;;;;;;13.22;100.00;99943.31;5054408;28;20630;-74
2022/10/22 06:53:18;;;;;;;3.87;1.63;;;;;;;13.33;100.00;99936.56;5066928;28;20667;-66
2022/10/22 06:55:43;;;;;;;8.80;1.67;;;;;;;13.37;100.00;99944.06;5042067;28;20189;-65
2022/10/22 06:58:09;;;;;;;4.57;1.87;;;;;;;13.42;100.00;99948.06;5049587;28;20650;-65
2022/10/22 07:00:34;;;;;;;1.97;1.30;;;;;;;13.42;100.00;99941.16;5032021;28;20212;-67
2022/10/22 07:02:59;;;;;;;4.80;1.17;;;;;;;13.49;100.00;99937.19;5054508;28;20208;-70
2022/10/22 07:05:25;;;;;;;3.23;1.63;;;;;;;13.58;100.00;99935.72;5036117;28;20202;-76
2022/10/22 07:07:50;;;;;;;2.00;1.10;;;;;;;13.47;100.00;99943.41;5050108;28;20230;-75
2022/10/22 07:10:15;;;;;;;1.87;1.20;;;;;;;13.66;100.00;99953.31;5041791;28;20203;-75
2022/10/22 07:12:40;;;;;;;4.40;1.43;;;;;;;13.93;100.00;99955.69;5079626;28;20205;-75
2022/10/22 07:15:06;;;;;;;1.87;1.23;;;;;;;14.04;100.00;99968.69;5040673;28;20185;-75
2022/10/22 07:17:31;;;;;;;3.30;1.10;;;;;;;14.09;100.00;99972.69;5081248;28;20197;-75
2022/10/22 07:19:56;;;;;;;1.73;1.20;;;;;;;14.24;100.00;99976.78;5050936;28;20199;-75
2022/10/22 07:22:22;;;;;;;3.50;1.20;;;;;;;14.37;100.00;99984.47;5073046;28;20225;-76
2022/10/22 07:24:47;;;;;;;2.33;1.10;;;;;;;14.43;100.00;99976.28;5050993;28;20186;-75
2022/10/22 07:27:12;;;;;;;5.00;1.60;;;;;;;14.28;100.00;99993.72;5049314;28;20195;-75
2022/10/22 07:29:37;;;;;;;3.17;1.40;;;;;;;14.29;100.00;99994.53;5050849;28;20188;-75
2022/10/22 07:32:03;;;;;;;1.43;1.30;;;;;;;14.35;100.00;100012.22;5038385;28;20240;-74
2022/10/22 07:34:28;;;;;;;5.73;1.63;;;;;;;14.25;100.00;100004.31;5050496;28;20169;-73
2022/10/22 07:36:55;;;;;;;3.73;1.40;;;;;;;14.02;100.00;100011.13;5040964;28;20298;-75
2022/10/22 07:39:21;;;;;;;4.60;1.17;;;;;;;14.02;100.00;100014.50;5050826;28;20211;-74
2022/10/22 07:41:46;;;;;;;2.67;1.23;;;;;;;14.32;100.00;100009.88;5049301;28;20228;-75
2022/10/22 07:44:11;;;;;;;2.53;1.30;;;;;;;14.35;100.00;100023.41;5048819;28;20841;-76
2022/10/22 07:46:36;;;;;;;2.50;1.20;;;;;;;14.35;100.00;100020.81;5050234;28;20529;-76
2022/10/22 07:49:02;;;;;;;2.27;1.33;;;;;;;14.23;100.00;100021.69;5071196;28;20182;-75
2022/10/22 07:51:27;;;;;;;3.50;1.30;;;;;;;14.37;100.00;100020.72;5048108;28;20568;-75
2022/10/22 07:53:52;;;;;;;1.90;1.30;;;;;;;14.28;100.00;100026.56;5049597;28;20182;-75
2022/10/22 07:56:17;;;;;;;4.10;1.10;;;;;;;14.19;100.00;100030.63;5049673;28;20253;-72
2022/10/22 07:58:43;;;;;;;4.10;1.23;;;;;;;14.10;100.00;100028.66;5050655;28;20208;-75
2022/10/22 08:01:08;;;;;;;1.50;1.20;;;;;;;14.17;100.00;100029.91;5058214;28;20232;-75
2022/10/22 08:03:34;;;;;;;2.13;0.90;;;;;;;14.24;100.00;100035.44;5050795;28;20223;-75
2022/10/22 08:05:59;;;;;;;5.80;1.50;;;;;;;14.30;100.00;100041.03;5050960;28;20666;-75
2022/10/22 08:08:25;;;;;;;4.07;0.80;;;;;;;14.12;100.00;100044.91;5049354;28;20257;-74
2022/10/22 08:10:52;;;;;;;1.27;0.83;;;;;;;14.29;100.00;100047.13;5057127;28;20633;-75
2022/10/22 08:13:18;;;;;;;2.00;0.97;;;;;;;14.29;100.00;100049.72;5053109;28;20267;-74
2022/10/22 08:15:45;;;;;;;5.30;1.00;;;;;;;14.14;100.00;100050.78;5054052;28;20697;-74
2022/10/22 08:18:11;;;;;;;2.70;1.07;;;;;;;14.18;100.00;100045.31;5053018;28;20258;-74
2022/10/22 08:20:36;;;;;;;1.70;0.70;;;;;;;14.49;100.00;100044.88;5059267;28;20233;-74
2022/10/22 08:23:01;;;;;;;3.30;2.60;;;;;;;14.72;100.00;100051.00;5048349;28;20652;-75
2022/10/22 08:25:26;;;;;;;4.37;2.37;;;;;;;14.94;100.00;100050.25;5051132;28;20221;-75
2022/10/22 08:27:52;;;;;;;4.63;1.10;;;;;;;15.10;100.00;100057.72;5053252;28;20272;-75
2022/10/22 08:30:18;;;;;;;1.53;0.80;;;;;;;15.28;100.00;100065.06;5046840;28;20590;-60
2022/10/22 08:32:43;;;;;;;3.47;1.10;;;;;;;15.35;100.00;100065.44;5076888;28;20229;-63
2022/10/22 08:35:09;;;;;;;3.13;1.10;;;;;;;15.31;100.00;100060.47;5076973;28;20174;-62
2022/10/22 08:37:34;;;;;;;2.93;1.10;;;;;;;15.38;100.00;100067.78;5048396;28;20201;-62
2022/10/22 08:40:00;;;;;;;2.50;0.73;;;;;;;15.73;100.00;100061.72;5053838;28;20210;-61
2022/10/22 08:42:34;;;;;;;2.70;1.00;;;;;;;15.99;100.00;100062.31;5062338;28;20295;-62
2022/10/22 08:45:10;;;;;;;1.53;0.70;;;;;;;16.27;100.00;100063.56;5039916;28;20516;-61
2022/10/22 08:47:44;;;;;;;2.03;0.93;;;;;;;17.80;100.00;100059.81;5052949;28;20610;-64
2022/10/22 08:50:15;;;;;;;2.77;0.93;;;;;;;19.00;100.00;100072.78;5045031;28;20205;-67
2022/10/22 08:52:46;;;;;;;2.03;0.60;;;;;;;20.94;99.58;100065.09;5072274;28;20543;-62
2022/10/22 08:55:14;;;;;;;2.97;0.60;;;;;;;21.59;92.88;100077.78;5067799;28;20227;-63
2022/10/22 08:57:57;;;;;;;3.30;0.83;;;;;;;23.60;76.85;100076.81;5052473;28;20201;-62
2022/10/22 09:00:33;;;;;;;2.30;0.80;;;;;;;23.53;71.63;100083.75;5048530;28;20720;-61
2022/10/22 09:03:25;;;;;;;1.52;0.47;;;;;;;24.55;61.49;100080.28;5064410;28;20334;-60
2022/10/22 09:06:12;;;;;;;1.73;0.70;;;;;;;22.52;76.00;100091.03;5053249;28;20246;-61
2022/10/22 09:08:39;;;;;;;3.45;0.60;;;;;;;25.38;59.14;100082.22;5052702;28;20189;-58
2022/10/22 09:11:10;;;;;;;2.35;0.70;;;;;;;25.72;53.67;100073.75;5052044;28;20436;-58
2022/10/22 09:13:35;;;;;;;3.90;0.75;;;;;;;26.56;49.61;100088.28;5055239;28;20272;-59
2022/10/22 09:16:17;;;;;;;2.58;1.25;;;;;;;27.25;46.29;100093.09;5052892;28;20272;-58
2022/10/22 09:18:55;;;;;;;0.77;0.77;;;;;;;27.06;46.56;100090.97;5052359;28;20185;-59
2022/10/22 09:21:23;;;;;;;2.55;0.82;;;;;;;25.73;51.93;100091.22;5055930;28;20258;-59
2022/10/22 09:24:10;;;;;;;3.70;0.90;;;;;;;27.41;47.29;100105.22;5057492;28;20189;-63
2022/10/22 09:26:37;;;;;;;4.57;1.50;;;;;;;28.01;45.17;100093.06;5052431;28;20290;-58
2022/10/22 09:29:03;;;;;;;3.28;1.50;;;;;;;29.09;41.94;100104.63;5051719;28;20205;-59
2022/10/22 09:31:30;;;;;;;1.25;1.05;;;;;;;29.71;38.90;100104.28;5051774;28;20240;-59
2022/10/22 09:33:58;;;;;;;0.93;0.60;;;;;;;27.35;44.17;100091.75;5054586;28;20228;-58
2022/10/22 09:39:49;;;;;;;3.47;0.80;;;;;;;27.11;44.87;100098.28;5050403;28;20228;-58
2022/10/22 09:42:17;;;;;;;5.15;0.70;;;;;;;27.23;45.13;100094.09;5062605;28;20224;-58
2022/10/22 09:44:49;;;;;;;1.42;0.63;;;;;;;28.62;41.80;100087.91;5050185;28;20246;-70
2022/10/22 09:47:35;;;;;;;4.75;0.95;;;;;;;26.22;46.61;100089.78;5050429;28;20182;-69
2022/10/22 09:50:28;;;;;;;2.55;0.77;;;;;;;28.78;41.16;100095.47;5064435;28;20198;-68
2022/10/22 09:53:11;;;;;;;2.35;0.60;;;;;;;28.26;41.72;100091.75;5019622;28;20224;-70
2022/10/22 09:55:39;;;;;;;3.60;0.82;;;;;;;26.91;45.22;100108.69;5052174;28;20189;-69
2022/10/22 09:58:04;;;;;;;2.35;1.35;;;;;;;28.72;42.01;100104.22;5032918;28;20270;-69
2022/10/22 10:00:30;;;;;;;3.03;0.90;;;;;;;28.17;44.56;100107.00;5047547;28;20227;-69
2022/10/22 10:02:58;;;;;;;4.55;1.55;;;;;;;28.67;42.79;100107.47;5062918;28;20641;-69
2022/10/22 10:05:31;;;;;;;2.45;1.02;;;;;;;26.62;47.83;100112.25;5036702;28;20181;-69
2022/10/22 10:07:58;;;;;;;3.45;0.50;;;;;;;24.27;59.89;100119.41;5051568;28;20260;-68
2022/10/22 10:10:47;;;;;;;3.50;0.60;;;;;;;21.58;79.25;100109.31;5045729;28;20217;-69
2022/10/22 10:13:48;;;;;;;3.83;1.00;;;;;;;21.93;84.46;100099.69;5061199;28;20275;-68
2022/10/22 10:16:39;;;;;;;2.03;0.70;;;;;;;21.58;85.23;100106.72;5009328;28;20193;-69
2022/10/22 10:19:34;;;;;;;3.53;1.15;;;;;;;21.63;90.39;100108.88;5029295;28;20273;-68
2022/10/22 10:22:36;;;;;;;3.33;1.08;;;;;;;20.79;94.54;100104.03;5002946;28;20253;-69
2022/10/22 10:25:03;;;;;;;3.77;1.17;;;;;;;20.43;97.67;100110.03;4993294;28;20182;-68
2022/10/22 10:27:57;;;;;;;2.83;0.90;;;;;;;20.03;100.00;100111.19;5008722;28;20249;-68
2022/10/22 10:30:23;;;;;;;3.17;0.83;;;;;;;19.67;100.00;100113.66;4988339;28;20657;-69
2022/10/22 10:33:16;;;;;;;3.37;0.70;;;;;;;19.64;100.00;100108.72;5022469;28;20298;-68
2022/10/22 10:35:54;;;;;;;1.50;0.73;;;;;;;19.71;100.00;100112.41;5039601;28;20178;-68
2022/10/22 10:38:38;;;;;;;1.53;0.93;;;;;;;19.65;100.00;100115.59;5012153;28;20206;-69
2022/10/22 10:41:24;;;;;;;2.17;0.70;;;;;;;19.55;100.00;100109.56;5010802;28;20315;-69
2022/10/22 10:44:14;;;;;;;4.63;0.80;;;;;;;19.74;100.00;100112.13;5017810;28;20220;-68
2022/10/22 10:46:54;;;;;;;1.97;0.90;;;;;;;19.80;100.00;100111.53;5028698;28;20185;-69
2022/10/22 10:49:24;;;;;;;1.97;0.90;;;;;;;20.20;100.00;100107.00;5012421;28;20637;-68
2022/10/22 10:52:14;;;;;;;2.53;0.80;;;;;;;20.00;100.00;100112.31;5021252;28;20224;-69
2022/10/22 10:54:59;;;;;;;3.73;1.20;;;;;;;20.08;100.00;100101.16;5046919;28;20174;-69
2022/10/22 10:57:45;;;;;;;1.70;0.70;;;;;;;20.39;100.00;100102.63;5050614;28;20654;-68
2022/10/22 11:00:16;;;;;;;3.30;0.87;;;;;;;20.04;100.00;100104.19;5032749;28;20263;-68
2022/10/22 11:03:13;;;;;;;3.20;1.10;;;;;;;19.81;100.00;100099.34;5079626;28;20174;-70
2022/10/22 11:06:00;;;;;;;5.60;2.47;;;;;;;20.21;100.00;100100.00;5049944;28;20181;-69
2022/10/22 11:08:32;;;;;;;2.83;1.00;;;;;;;20.21;100.00;100102.59;5049057;28;20209;-68
2022/10/22 11:11:15;;;;;;;3.43;1.27;;;;;;;20.22;100.00;100101.63;5050326;28;20231;-68
2022/10/22 11:13:52;;;;;;;3.17;1.20;;;;;;;19.86;100.00;100099.75;5063785;28;20185;-68
2022/10/22 11:16:36;;;;;;;2.33;0.80;;;;;;;20.05;100.00;100105.84;5052511;28;20227;-75
2022/10/22 11:19:26;;;;;;;4.67;0.93;;;;;;;19.96;100.00;100108.34;5057658;28;20177;-68
2022/10/22 11:22:21;;;;;;;7.70;2.60;;;;;;;20.18;100.00;100103.72;5057229;28;20601;-69
2022/10/22 11:24:58;;;;;;;2.80;1.20;;;;;;;20.30;100.00;100099.94;5039659;28;20545;-70
2022/10/22 11:27:40;;;;;;;3.47;1.40;;;;;;;20.06;100.00;100100.47;5048369;28;20204;-67
2022/10/22 11:30:19;;;;;;;5.90;1.17;;;;;;;20.53;100.00;100096.91;5036279;27;20178;-74
2022/10/22 11:32:50;;;;;;;6.23;1.30;;;;;;;20.76;100.00;100094.69;5029020;28;20261;-76
2022/10/22 11:35:21;;;;;;;3.53;1.10;;;;;;;20.98;97.66;100103.03;5031223;28;20265;-75
2022/10/22 11:37:47;;;;;;;4.17;1.33;;;;;;;20.88;97.17;100100.50;5030140;28;22010;-69
2022/10/22 11:40:14;;;;;;;7.63;1.80;;;;;;;20.82;96.09;100106.31;5024721;28;20277;-67
2022/10/22 11:42:45;;;;;;;3.83;1.17;;;;;;;20.59;96.48;100098.91;5080137;28;20185;-67